sensor_id;sensor_type;location;lat;lon;timestamp;P1;durP1;ratioP1;P2;durP2;ratioP2
51664;SDS011;37751;52.408;12.536;2023-03-14T00:02:20;2.05;;;1.00;;
51664;SDS011;37751;52.408;12.536;2023-03-14T00:04:48;1.92;;;1.00;;
51664;SDS011;37751;52.408;12.536;2023-03-14T00:07:17;2.33;;;1.02;;
51664;SDS011;37751;52.408;12.536;2023-03-14T00:09:48;4.63;;;1.00;;
51664;SDS011;37751;52.408;12.536;2023-03-14T00:12:19;1.30;;;0.88;;
51664;SDS011;37751;52.408;12.536;2023-03-14T00:14:48;2.90;;;0.93;;
51664;SDS011;37751;52.408;12.536;2023-03-14T00:17:16;1.98;;;0.90;;
51664;SDS011;37751;52.408;12.536;2023-03-14T00:19:44;1.25;;;0.80;;
51664;SDS011;37751;52.408;12.536;2023-03-14T00:22:16;3.85;;;1.08;;
51664;SDS011;37751;52.408;12.536;2023-03-14T00:24:48;4.38;;;1.27;;
51664;SDS011;37751;52.408;12.536;2023-03-14T00:27:16;1.10;;;0.90;;
51664;SDS011;37751;52.408;12.536;2023-03-14T00:29:46;3.10;;;0.70;;
51664;SDS011;37751;52.408;12.536;2023-03-14T00:32:16;1.35;;;0.80;;
51664;SDS011;37751;52.408;12.536;2023-03-14T00:34:46;1.40;;;0.93;;
51664;SDS011;37751;52.408;12.536;2023-03-14T00:37:17;4.18;;;0.98;;
51664;SDS011;37751;52.408;12.536;2023-03-14T00:39:50;1.35;;;0.93;;
51664;SDS011;37751;52.408;12.536;2023-03-14T00:42:36;2.05;;;1.50;;
51664;SDS011;37751;52.408;12.536;2023-03-14T00:45:07;3.38;;;0.80;;
51664;SDS011;37751;52.408;12.536;2023-03-14T00:47:49;3.80;;;1.08;;
51664;SDS011;37751;52.408;12.536;2023-03-14T00:50:28;1.65;;;0.90;;
51664;SDS011;37751;52.408;12.536;2023-03-14T00:53:00;3.65;;;1.40;;
51664;SDS011;37751;52.408;12.536;2023-03-14T00:55:54;2.45;;;1.00;;
51664;SDS011;37751;52.408;12.536;2023-03-14T00:58:25;1.70;;;0.93;;
51664;SDS011;37751;52.408;12.536;2023-03-14T01:01:04;1.92;;;1.02;;
51664;SDS011;37751;52.408;12.536;2023-03-14T01:03:38;1.95;;;0.90;;
51664;SDS011;37751;52.408;12.536;2023-03-14T01:06:16;2.95;;;0.85;;
51664;SDS011;37751;52.408;12.536;2023-03-14T01:08:48;3.97;;;1.10;;
51664;SDS011;37751;52.408;12.536;2023-03-14T01:11:17;1.40;;;1.10;;
51664;SDS011;37751;52.408;12.536;2023-03-14T01:13:48;2.00;;;0.85;;
51664;SDS011;37751;52.408;12.536;2023-03-14T01:16:24;4.07;;;1.13;;
51664;SDS011;37751;52.408;12.536;2023-03-14T01:19:00;2.05;;;0.77;;
51664;SDS011;37751;52.408;12.536;2023-03-14T01:21:31;0.70;;;0.70;;
51664;SDS011;37751;52.408;12.536;2023-03-14T01:24:10;4.20;;;1.17;;
51664;SDS011;37751;52.408;12.536;2023-03-14T01:26:39;3.08;;;0.88;;
51664;SDS011;37751;52.408;12.536;2023-03-14T01:29:08;4.63;;;0.80;;
51664;SDS011;37751;52.408;12.536;2023-03-14T01:31:38;2.58;;;0.90;;
51664;SDS011;37751;52.408;12.536;2023-03-14T01:34:09;2.75;;;0.90;;
51664;SDS011;37751;52.408;12.536;2023-03-14T01:36:37;3.25;;;1.08;;
51664;SDS011;37751;52.408;12.536;2023-03-14T01:39:06;1.17;;;0.75;;
51664;SDS011;37751;52.408;12.536;2023-03-14T01:41:37;0.80;;;0.80;;
51664;SDS011;37751;52.408;12.536;2023-03-14T01:44:11;4.22;;;1.25;;
51664;SDS011;37751;52.408;12.536;2023-03-14T01:46:47;0.80;;;0.63;;
51664;SDS011;37751;52.408;12.536;2023-03-14T01:49:25;0.93;;;0.80;;
51664;SDS011;37751;52.408;12.536;2023-03-14T01:52:24;2.55;;;0.90;;
51664;SDS011;37751;52.408;12.536;2023-03-14T01:55:04;0.85;;;0.63;;
51664;SDS011;37751;52.408;12.536;2023-03-14T01:57:49;1.35;;;0.75;;
51664;SDS011;37751;52.408;12.536;2023-03-14T02:00:36;0.95;;;0.60;;
51664;SDS011;37751;52.408;12.536;2023-03-14T02:03:07;2.08;;;0.88;;
51664;SDS011;37751;52.408;12.536;2023-03-14T02:05:44;1.17;;;0.57;;
51664;SDS011;37751;52.408;12.536;2023-03-14T02:08:18;0.68;;;0.68;;
51664;SDS011;37751;52.408;12.536;2023-03-14T02:11:03;1.05;;;0.73;;
51664;SDS011;37751;52.408;12.536;2023-03-14T02:14:13;2.03;;;0.75;;
51664;SDS011;37751;52.408;12.536;2023-03-14T02:17:23;2.45;;;0.60;;
51664;SDS011;37751;52.408;12.536;2023-03-14T02:23:20;1.55;;;0.80;;
51664;SDS011;37751;52.408;12.536;2023-03-14T02:26:43;1.17;;;0.75;;
51664;SDS011;37751;52.408;12.536;2023-03-14T02:29:59;3.97;;;0.88;;
51664;SDS011;37751;52.408;12.536;2023-03-14T02:32:46;0.65;;;0.50;;
51664;SDS011;37751;52.408;12.536;2023-03-14T02:35:21;2.30;;;0.47;;
51664;SDS011;37751;52.408;12.536;2023-03-14T02:38:31;1.67;;;0.60;;
51664;SDS011;37751;52.408;12.536;2023-03-14T02:41:40;1.45;;;0.60;;
51664;SDS011;37751;52.408;12.536;2023-03-14T02:44:13;2.45;;;0.68;;
51664;SDS011;37751;52.408;12.536;2023-03-14T02:46:42;2.00;;;0.60;;
51664;SDS011;37751;52.408;12.536;2023-03-14T02:49:12;1.35;;;0.60;;
51664;SDS011;37751;52.408;12.536;2023-03-14T02:51:44;1.85;;;0.65;;
51664;SDS011;37751;52.408;12.536;2023-03-14T02:54:16;4.43;;;0.70;;
51664;SDS011;37751;52.408;12.536;2023-03-14T02:56:50;1.30;;;0.90;;
51664;SDS011;37751;52.408;12.536;2023-03-14T02:59:18;1.40;;;0.57;;
51664;SDS011;37751;52.408;12.536;2023-03-14T03:01:51;1.55;;;0.60;;
51664;SDS011;37751;52.408;12.536;2023-03-14T03:04:19;1.38;;;0.65;;
51664;SDS011;37751;52.408;12.536;2023-03-14T03:06:46;3.22;;;0.60;;
51664;SDS011;37751;52.408;12.536;2023-03-14T03:09:16;2.15;;;0.70;;
51664;SDS011;37751;52.408;12.536;2023-03-14T03:12:02;0.82;;;0.57;;
51664;SDS011;37751;52.408;12.536;2023-03-14T03:15:05;0.90;;;0.75;;
51664;SDS011;37751;52.408;12.536;2023-03-14T03:17:40;1.20;;;0.80;;
51664;SDS011;37751;52.408;12.536;2023-03-14T03:20:08;0.88;;;0.60;;
51664;SDS011;37751;52.408;12.536;2023-03-14T03:22:41;1.23;;;0.50;;
51664;SDS011;37751;52.408;12.536;2023-03-14T03:25:09;3.35;;;0.60;;
51664;SDS011;37751;52.408;12.536;2023-03-14T03:27:37;2.50;;;0.80;;
51664;SDS011;37751;52.408;12.536;2023-03-14T03:30:05;1.52;;;0.60;;
51664;SDS011;37751;52.408;12.536;2023-03-14T03:32:39;1.23;;;0.60;;
51664;SDS011;37751;52.408;12.536;2023-03-14T03:35:17;0.73;;;0.65;;
51664;SDS011;37751;52.408;12.536;2023-03-14T03:37:44;1.52;;;0.70;;
51664;SDS011;37751;52.408;12.536;2023-03-14T03:40:12;0.93;;;0.55;;
51664;SDS011;37751;52.408;12.536;2023-03-14T03:42:41;1.95;;;0.52;;
51664;SDS011;37751;52.408;12.536;2023-03-14T03:45:13;3.05;;;0.68;;
51664;SDS011;37751;52.408;12.536;2023-03-14T03:47:50;1.77;;;0.55;;
51664;SDS011;37751;52.408;12.536;2023-03-14T03:50:18;1.52;;;0.65;;
51664;SDS011;37751;52.408;12.536;2023-03-14T03:52:49;2.53;;;0.57;;
51664;SDS011;37751;52.408;12.536;2023-03-14T03:55:19;3.00;;;0.75;;
51664;SDS011;37751;52.408;12.536;2023-03-14T03:57:47;1.50;;;0.52;;
51664;SDS011;37751;52.408;12.536;2023-03-14T04:00:15;1.00;;;0.50;;
51664;SDS011;37751;52.408;12.536;2023-03-14T04:02:50;1.23;;;0.77;;
51664;SDS011;37751;52.408;12.536;2023-03-14T04:05:19;2.58;;;0.50;;
51664;SDS011;37751;52.408;12.536;2023-03-14T04:07:53;3.25;;;0.65;;
51664;SDS011;37751;52.408;12.536;2023-03-14T04:10:25;2.33;;;0.60;;
51664;SDS011;37751;52.408;12.536;2023-03-14T04:13:06;1.15;;;0.52;;
51664;SDS011;37751;52.408;12.536;2023-03-14T04:15:39;0.77;;;0.60;;
51664;SDS011;37751;52.408;12.536;2023-03-14T04:18:19;1.02;;;0.65;;
51664;SDS011;37751;52.408;12.536;2023-03-14T04:20:51;1.42;;;0.55;;
51664;SDS011;37751;52.408;12.536;2023-03-14T04:23:27;3.00;;;0.82;;
51664;SDS011;37751;52.408;12.536;2023-03-14T04:25:55;1.83;;;0.70;;
51664;SDS011;37751;52.408;12.536;2023-03-14T04:28:24;1.33;;;0.60;;
51664;SDS011;37751;52.408;12.536;2023-03-14T04:30:52;3.55;;;0.85;;
51664;SDS011;37751;52.408;12.536;2023-03-14T04:33:22;2.75;;;0.70;;
51664;SDS011;37751;52.408;12.536;2023-03-14T04:35:53;3.88;;;0.90;;
51664;SDS011;37751;52.408;12.536;2023-03-14T04:38:24;1.67;;;0.60;;
51664;SDS011;37751;52.408;12.536;2023-03-14T04:40:52;3.08;;;0.80;;
51664;SDS011;37751;52.408;12.536;2023-03-14T04:43:23;2.47;;;0.50;;
51664;SDS011;37751;52.408;12.536;2023-03-14T04:45:59;1.42;;;0.60;;
51664;SDS011;37751;52.408;12.536;2023-03-14T04:48:27;1.85;;;0.70;;
51664;SDS011;37751;52.408;12.536;2023-03-14T04:50:55;1.50;;;0.55;;
51664;SDS011;37751;52.408;12.536;2023-03-14T04:53:23;4.15;;;0.80;;
51664;SDS011;37751;52.408;12.536;2023-03-14T04:55:56;1.02;;;0.77;;
51664;SDS011;37751;52.408;12.536;2023-03-14T04:58:30;2.92;;;0.65;;
51664;SDS011;37751;52.408;12.536;2023-03-14T05:01:03;1.30;;;0.60;;
51664;SDS011;37751;52.408;12.536;2023-03-14T05:03:50;1.42;;;0.73;;
51664;SDS011;37751;52.408;12.536;2023-03-14T05:06:28;0.88;;;0.70;;
51664;SDS011;37751;52.408;12.536;2023-03-14T05:09:06;1.38;;;0.65;;
51664;SDS011;37751;52.408;12.536;2023-03-14T05:11:52;3.78;;;0.80;;
51664;SDS011;37751;52.408;12.536;2023-03-14T05:14:33;2.95;;;0.60;;
51664;SDS011;37751;52.408;12.536;2023-03-14T05:17:36;0.93;;;0.70;;
51664;SDS011;37751;52.408;12.536;2023-03-14T05:20:12;1.85;;;0.73;;
51664;SDS011;37751;52.408;12.536;2023-03-14T05:22:54;1.10;;;0.80;;
51664;SDS011;37751;52.408;12.536;2023-03-14T05:26:02;2.33;;;0.70;;
51664;SDS011;37751;52.408;12.536;2023-03-14T05:28:29;1.65;;;0.70;;
51664;SDS011;37751;52.408;12.536;2023-03-14T05:31:16;2.60;;;0.73;;
51664;SDS011;37751;52.408;12.536;2023-03-14T05:34:17;1.85;;;0.80;;
51664;SDS011;37751;52.408;12.536;2023-03-14T05:37:08;1.38;;;0.60;;
51664;SDS011;37751;52.408;12.536;2023-03-14T05:39:55;6.25;;;1.05;;
51664;SDS011;37751;52.408;12.536;2023-03-14T05:42:38;3.63;;;0.93;;
51664;SDS011;37751;52.408;12.536;2023-03-14T05:45:29;3.50;;;0.80;;
51664;SDS011;37751;52.408;12.536;2023-03-14T05:48:06;1.30;;;0.75;;
51664;SDS011;37751;52.408;12.536;2023-03-14T05:50:44;4.47;;;0.95;;
51664;SDS011;37751;52.408;12.536;2023-03-14T05:53:24;1.80;;;0.90;;
51664;SDS011;37751;52.408;12.536;2023-03-14T05:56:36;2.78;;;1.00;;
51664;SDS011;37751;52.408;12.536;2023-03-14T05:59:33;3.17;;;0.88;;
51664;SDS011;37751;52.408;12.536;2023-03-14T06:02:15;1.50;;;0.80;;
51664;SDS011;37751;52.408;12.536;2023-03-14T06:04:57;3.55;;;0.82;;
51664;SDS011;37751;52.408;12.536;2023-03-14T06:07:25;5.30;;;1.00;;
51664;SDS011;37751;52.408;12.536;2023-03-14T06:09:55;3.50;;;1.00;;
51664;SDS011;37751;52.408;12.536;2023-03-14T06:12:26;6.63;;;1.00;;
51664;SDS011;37751;52.408;12.536;2023-03-14T06:14:56;3.33;;;1.33;;
51664;SDS011;37751;52.408;12.536;2023-03-14T06:17:24;4.65;;;0.98;;
51664;SDS011;37751;52.408;12.536;2023-03-14T06:20:03;3.65;;;1.20;;
51664;SDS011;37751;52.408;12.536;2023-03-14T06:22:31;4.20;;;1.10;;
51664;SDS011;37751;52.408;12.536;2023-03-14T06:25:06;6.05;;;0.93;;
51664;SDS011;37751;52.408;12.536;2023-03-14T06:27:34;4.18;;;1.25;;
51664;SDS011;37751;52.408;12.536;2023-03-14T06:30:13;8.00;;;1.17;;
51664;SDS011;37751;52.408;12.536;2023-03-14T06:32:42;6.63;;;1.45;;
51664;SDS011;37751;52.408;12.536;2023-03-14T06:35:13;7.43;;;1.13;;
51664;SDS011;37751;52.408;12.536;2023-03-14T06:37:45;4.10;;;1.10;;
51664;SDS011;37751;52.408;12.536;2023-03-14T06:40:20;7.78;;;1.10;;
51664;SDS011;37751;52.408;12.536;2023-03-14T06:42:56;4.72;;;1.05;;
51664;SDS011;37751;52.408;12.536;2023-03-14T06:45:29;6.35;;;1.23;;
51664;SDS011;37751;52.408;12.536;2023-03-14T06:47:59;4.68;;;1.30;;
51664;SDS011;37751;52.408;12.536;2023-03-14T06:50:49;6.03;;;1.30;;
51664;SDS011;37751;52.408;12.536;2023-03-14T06:53:17;4.05;;;1.25;;
51664;SDS011;37751;52.408;12.536;2023-03-14T06:55:46;4.03;;;0.88;;
51664;SDS011;37751;52.408;12.536;2023-03-14T06:58:16;5.35;;;1.02;;
51664;SDS011;37751;52.408;12.536;2023-03-14T07:00:46;4.50;;;0.80;;
51664;SDS011;37751;52.408;12.536;2023-03-14T07:03:20;6.55;;;1.08;;
51664;SDS011;37751;52.408;12.536;2023-03-14T07:05:49;5.35;;;1.40;;
51664;SDS011;37751;52.408;12.536;2023-03-14T07:08:19;3.97;;;0.95;;
51664;SDS011;37751;52.408;12.536;2023-03-14T07:10:47;8.38;;;1.00;;
51664;SDS011;37751;52.408;12.536;2023-03-14T07:13:18;5.75;;;1.73;;
51664;SDS011;37751;52.408;12.536;2023-03-14T07:16:00;4.90;;;1.17;;
51664;SDS011;37751;52.408;12.536;2023-03-14T07:18:28;2.83;;;1.00;;
51664;SDS011;37751;52.408;12.536;2023-03-14T07:20:56;3.55;;;1.10;;
51664;SDS011;37751;52.408;12.536;2023-03-14T07:23:27;4.53;;;1.20;;
51664;SDS011;37751;52.408;12.536;2023-03-14T07:25:58;5.63;;;1.08;;
51664;SDS011;37751;52.408;12.536;2023-03-14T07:28:29;4.00;;;0.90;;
51664;SDS011;37751;52.408;12.536;2023-03-14T07:31:06;5.25;;;1.00;;
51664;SDS011;37751;52.408;12.536;2023-03-14T07:33:47;4.80;;;1.08;;
51664;SDS011;37751;52.408;12.536;2023-03-14T07:36:24;5.43;;;1.20;;
51664;SDS011;37751;52.408;12.536;2023-03-14T07:39:20;7.70;;;1.08;;
51664;SDS011;37751;52.408;12.536;2023-03-14T07:45:11;7.00;;;1.15;;
51664;SDS011;37751;52.408;12.536;2023-03-14T07:47:39;6.25;;;0.90;;
51664;SDS011;37751;52.408;12.536;2023-03-14T07:50:12;4.63;;;1.02;;
51664;SDS011;37751;52.408;12.536;2023-03-14T07:52:43;8.88;;;1.30;;
51664;SDS011;37751;52.408;12.536;2023-03-14T07:55:16;6.63;;;1.02;;
51664;SDS011;37751;52.408;12.536;2023-03-14T07:57:44;4.43;;;1.52;;
51664;SDS011;37751;52.408;12.536;2023-03-14T08:00:19;3.60;;;0.90;;
51664;SDS011;37751;52.408;12.536;2023-03-14T08:02:49;4.25;;;1.20;;
51664;SDS011;37751;52.408;12.536;2023-03-14T08:05:17;3.78;;;1.27;;
51664;SDS011;37751;52.408;12.536;2023-03-14T08:07:47;7.65;;;1.42;;
51664;SDS011;37751;52.408;12.536;2023-03-14T08:10:21;12.60;;;1.77;;
51664;SDS011;37751;52.408;12.536;2023-03-14T08:12:56;5.68;;;1.13;;
51664;SDS011;37751;52.408;12.536;2023-03-14T08:15:26;3.35;;;0.95;;
51664;SDS011;37751;52.408;12.536;2023-03-14T08:17:59;2.70;;;1.13;;
51664;SDS011;37751;52.408;12.536;2023-03-14T08:20:28;10.77;;;1.80;;
51664;SDS011;37751;52.408;12.536;2023-03-14T08:22:58;3.97;;;1.20;;
51664;SDS011;37751;52.408;12.536;2023-03-14T08:25:29;4.47;;;1.00;;
51664;SDS011;37751;52.408;12.536;2023-03-14T08:27:57;5.53;;;1.50;;
51664;SDS011;37751;52.408;12.536;2023-03-14T08:30:34;2.88;;;0.95;;
51664;SDS011;37751;52.408;12.536;2023-03-14T08:33:05;6.18;;;1.02;;
51664;SDS011;37751;52.408;12.536;2023-03-14T08:35:34;3.78;;;1.10;;
51664;SDS011;37751;52.408;12.536;2023-03-14T08:38:05;6.63;;;1.88;;
51664;SDS011;37751;52.408;12.536;2023-03-14T08:40:33;4.38;;;1.08;;
51664;SDS011;37751;52.408;12.536;2023-03-14T08:43:03;4.45;;;0.85;;
51664;SDS011;37751;52.408;12.536;2023-03-14T08:45:33;3.33;;;1.05;;
51664;SDS011;37751;52.408;12.536;2023-03-14T08:48:03;4.20;;;1.02;;
51664;SDS011;37751;52.408;12.536;2023-03-14T08:50:38;5.22;;;0.95;;
51664;SDS011;37751;52.408;12.536;2023-03-14T08:53:06;6.25;;;1.20;;
51664;SDS011;37751;52.408;12.536;2023-03-14T08:55:36;3.63;;;0.80;;
51664;SDS011;37751;52.408;12.536;2023-03-14T08:58:07;4.50;;;0.98;;
51664;SDS011;37751;52.408;12.536;2023-03-14T09:00:35;5.32;;;0.93;;
51664;SDS011;37751;52.408;12.536;2023-03-14T09:03:05;5.47;;;1.40;;
51664;SDS011;37751;52.408;12.536;2023-03-14T09:05:35;4.75;;;0.70;;
51664;SDS011;37751;52.408;12.536;2023-03-14T09:08:03;5.97;;;1.05;;
51664;SDS011;37751;52.408;12.536;2023-03-14T09:10:32;4.78;;;1.10;;
51664;SDS011;37751;52.408;12.536;2023-03-14T09:13:00;2.88;;;0.90;;
51664;SDS011;37751;52.408;12.536;2023-03-14T09:15:28;6.15;;;1.27;;
51664;SDS011;37751;52.408;12.536;2023-03-14T09:17:59;4.13;;;1.17;;
51664;SDS011;37751;52.408;12.536;2023-03-14T09:20:27;5.40;;;0.98;;
51664;SDS011;37751;52.408;12.536;2023-03-14T09:22:58;5.47;;;1.00;;
51664;SDS011;37751;52.408;12.536;2023-03-14T09:25:26;4.25;;;0.75;;
51664;SDS011;37751;52.408;12.536;2023-03-14T09:27:57;3.75;;;0.85;;
51664;SDS011;37751;52.408;12.536;2023-03-14T09:30:25;5.57;;;0.88;;
51664;SDS011;37751;52.408;12.536;2023-03-14T09:32:54;7.90;;;0.90;;
51664;SDS011;37751;52.408;12.536;2023-03-14T09:35:25;3.63;;;0.80;;
51664;SDS011;37751;52.408;12.536;2023-03-14T09:37:55;4.10;;;1.05;;
51664;SDS011;37751;52.408;12.536;2023-03-14T09:40:23;6.68;;;1.13;;
51664;SDS011;37751;52.408;12.536;2023-03-14T09:42:52;3.17;;;0.63;;
51664;SDS011;37751;52.408;12.536;2023-03-14T09:45:29;3.60;;;0.88;;
51664;SDS011;37751;52.408;12.536;2023-03-14T09:48:12;3.17;;;1.00;;
51664;SDS011;37751;52.408;12.536;2023-03-14T09:51:04;4.22;;;1.67;;
51664;SDS011;37751;52.408;12.536;2023-03-14T09:53:41;3.75;;;0.60;;
51664;SDS011;37751;52.408;12.536;2023-03-14T09:56:13;5.32;;;0.82;;
51664;SDS011;37751;52.408;12.536;2023-03-14T09:59:00;2.10;;;0.75;;
51664;SDS011;37751;52.408;12.536;2023-03-14T10:01:32;1.58;;;0.50;;
51664;SDS011;37751;52.408;12.536;2023-03-14T10:04:10;3.15;;;0.70;;
51664;SDS011;37751;52.408;12.536;2023-03-14T10:06:46;4.25;;;0.80;;
51664;SDS011;37751;52.408;12.536;2023-03-14T10:09:22;2.15;;;0.70;;
51664;SDS011;37751;52.408;12.536;2023-03-14T10:11:58;4.75;;;0.70;;
51664;SDS011;37751;52.408;12.536;2023-03-14T10:14:36;5.10;;;0.88;;
51664;SDS011;37751;52.408;12.536;2023-03-14T10:17:13;2.25;;;0.70;;
51664;SDS011;37751;52.408;12.536;2023-03-14T10:19:54;3.22;;;0.85;;
51664;SDS011;37751;52.408;12.536;2023-03-14T10:22:30;1.60;;;0.70;;
51664;SDS011;37751;52.408;12.536;2023-03-14T10:25:00;2.10;;;0.50;;
51664;SDS011;37751;52.408;12.536;2023-03-14T10:27:53;4.82;;;0.68;;
51664;SDS011;37751;52.408;12.536;2023-03-14T10:33:28;4.03;;;0.70;;
51664;SDS011;37751;52.408;12.536;2023-03-14T10:36:24;2.78;;;0.60;;
51664;SDS011;37751;52.408;12.536;2023-03-14T10:38:57;1.75;;;0.52;;
51664;SDS011;37751;52.408;12.536;2023-03-14T10:41:56;2.30;;;0.60;;
51664;SDS011;37751;52.408;12.536;2023-03-14T10:44:36;2.22;;;0.60;;
51664;SDS011;37751;52.408;12.536;2023-03-14T10:47:15;4.00;;;0.70;;
51664;SDS011;37751;52.408;12.536;2023-03-14T10:49:53;3.63;;;0.50;;
51664;SDS011;37751;52.408;12.536;2023-03-14T10:52:28;4.00;;;0.80;;
51664;SDS011;37751;52.408;12.536;2023-03-14T10:55:19;3.00;;;0.52;;
51664;SDS011;37751;52.408;12.536;2023-03-14T10:57:48;2.42;;;1.00;;
51664;SDS011;37751;52.408;12.536;2023-03-14T11:00:22;4.82;;;0.80;;
51664;SDS011;37751;52.408;12.536;2023-03-14T11:03:08;3.65;;;0.70;;
51664;SDS011;37751;52.408;12.536;2023-03-14T11:09:18;2.58;;;0.90;;
51664;SDS011;37751;52.408;12.536;2023-03-14T11:15:18;3.60;;;0.88;;
51664;SDS011;37751;52.408;12.536;2023-03-14T11:18:22;4.00;;;0.80;;
51664;SDS011;37751;52.408;12.536;2023-03-14T11:21:02;2.92;;;1.10;;
51664;SDS011;37751;52.408;12.536;2023-03-14T11:23:57;3.95;;;0.90;;
51664;SDS011;37751;52.408;12.536;2023-03-14T11:29:39;4.65;;;0.70;;
51664;SDS011;37751;52.408;12.536;2023-03-14T11:32:34;10.45;;;1.05;;
51664;SDS011;37751;52.408;12.536;2023-03-14T11:35:58;1.92;;;0.60;;
51664;SDS011;37751;52.408;12.536;2023-03-14T11:41:29;1.40;;;0.63;;
51664;SDS011;37751;52.408;12.536;2023-03-14T11:47:05;7.32;;;0.88;;
51664;SDS011;37751;52.408;12.536;2023-03-14T11:52:58;2.65;;;0.60;;
51664;SDS011;37751;52.408;12.536;2023-03-14T11:55:57;3.33;;;0.73;;
51664;SDS011;37751;52.408;12.536;2023-03-14T11:58:38;2.60;;;0.98;;
51664;SDS011;37751;52.408;12.536;2023-03-14T12:01:32;4.38;;;0.75;;
51664;SDS011;37751;52.408;12.536;2023-03-14T12:10:39;2.92;;;0.82;;
51664;SDS011;37751;52.408;12.536;2023-03-14T12:13:21;5.43;;;0.85;;
51664;SDS011;37751;52.408;12.536;2023-03-14T12:15:50;2.53;;;0.88;;
51664;SDS011;37751;52.408;12.536;2023-03-14T12:18:38;2.13;;;0.70;;
51664;SDS011;37751;52.408;12.536;2023-03-14T12:21:09;2.53;;;0.50;;
51664;SDS011;37751;52.408;12.536;2023-03-14T12:26:18;1.60;;;0.50;;
51664;SDS011;37751;52.408;12.536;2023-03-14T12:34:03;1.92;;;0.50;;
51664;SDS011;37751;52.408;12.536;2023-03-14T12:42:58;1.90;;;0.50;;
51664;SDS011;37751;52.408;12.536;2023-03-14T12:49:48;1.38;;;0.43;;
51664;SDS011;37751;52.408;12.536;2023-03-14T13:03:52;3.35;;;0.40;;
51664;SDS011;37751;52.408;12.536;2023-03-14T13:07:01;4.68;;;0.80;;
51664;SDS011;37751;52.408;12.536;2023-03-14T13:10:49;0.63;;;0.35;;
51664;SDS011;37751;52.408;12.536;2023-03-14T13:13:44;0.43;;;0.20;;
51664;SDS011;37751;52.408;12.536;2023-03-14T13:17:12;0.60;;;0.40;;
51664;SDS011;37751;52.408;12.536;2023-03-14T13:25:00;0.40;;;0.20;;
51664;SDS011;37751;52.408;12.536;2023-03-14T13:31:56;1.85;;;0.60;;
51664;SDS011;37751;52.408;12.536;2023-03-14T13:34:56;1.17;;;0.30;;
51664;SDS011;37751;52.408;12.536;2023-03-14T13:37:31;2.00;;;1.00;;
51664;SDS011;37751;52.408;12.536;2023-03-14T13:41:03;1.73;;;0.80;;
51664;SDS011;37751;52.408;12.536;2023-03-14T13:43:41;1.85;;;0.30;;
51664;SDS011;37751;52.408;12.536;2023-03-14T13:46:21;1.17;;;0.55;;
51664;SDS011;37751;52.408;12.536;2023-03-14T13:52:40;1.60;;;0.50;;
51664;SDS011;37751;52.408;12.536;2023-03-14T14:00:38;1.73;;;0.65;;
51664;SDS011;37751;52.408;12.536;2023-03-14T14:03:22;2.40;;;0.50;;
51664;SDS011;37751;52.408;12.536;2023-03-14T14:06:16;5.78;;;0.52;;
51664;SDS011;37751;52.408;12.536;2023-03-14T14:09:35;0.82;;;0.38;;
51664;SDS011;37751;52.408;12.536;2023-03-14T14:19:46;0.95;;;0.40;;
51664;SDS011;37751;52.408;12.536;2023-03-14T14:22:39;1.80;;;0.60;;
51664;SDS011;37751;52.408;12.536;2023-03-14T14:30:24;4.55;;;0.45;;
51664;SDS011;37751;52.408;12.536;2023-03-14T14:35:58;2.17;;;0.50;;
51664;SDS011;37751;52.408;12.536;2023-03-14T14:38:27;17.23;;;1.57;;
51664;SDS011;37751;52.408;12.536;2023-03-14T14:40:59;0.00;;;0.00;;
51664;SDS011;37751;52.408;12.536;2023-03-14T14:43:34;0.10;;;0.10;;
51664;SDS011;37751;52.408;12.536;2023-03-14T15:06:46;0.03;;;0.03;;
51664;SDS011;37751;52.408;12.536;2023-03-14T15:09:41;0.00;;;0.00;;
51664;SDS011;37751;52.408;12.536;2023-03-14T15:12:09;0.10;;;0.10;;
51664;SDS011;37751;52.408;12.536;2023-03-14T15:14:37;0.00;;;0.00;;
51664;SDS011;37751;52.408;12.536;2023-03-14T15:17:05;0.00;;;0.00;;
51664;SDS011;37751;52.408;12.536;2023-03-14T15:19:33;0.00;;;0.00;;
51664;SDS011;37751;52.408;12.536;2023-03-14T15:22:09;0.03;;;0.03;;
51664;SDS011;37751;52.408;12.536;2023-03-14T15:24:41;0.10;;;0.10;;
51664;SDS011;37751;52.408;12.536;2023-03-14T15:27:13;0.10;;;0.10;;
51664;SDS011;37751;52.408;12.536;2023-03-14T15:29:45;0.00;;;0.00;;
51664;SDS011;37751;52.408;12.536;2023-03-14T15:32:14;0.00;;;0.00;;
51664;SDS011;37751;52.408;12.536;2023-03-14T15:34:43;0.20;;;0.20;;
51664;SDS011;37751;52.408;12.536;2023-03-14T15:37:11;0.20;;;0.20;;
51664;SDS011;37751;52.408;12.536;2023-03-14T15:39:43;0.13;;;0.13;;
51664;SDS011;37751;52.408;12.536;2023-03-14T15:42:11;0.10;;;0.10;;
51664;SDS011;37751;52.408;12.536;2023-03-14T15:44:38;0.10;;;0.10;;
51664;SDS011;37751;52.408;12.536;2023-03-14T15:47:08;0.10;;;0.10;;
51664;SDS011;37751;52.408;12.536;2023-03-14T15:49:37;0.10;;;0.10;;
51664;SDS011;37751;52.408;12.536;2023-03-14T15:52:04;0.10;;;0.10;;
51664;SDS011;37751;52.408;12.536;2023-03-14T15:54:33;0.10;;;0.10;;
51664;SDS011;37751;52.408;12.536;2023-03-14T15:57:07;0.10;;;0.10;;
51664;SDS011;37751;52.408;12.536;2023-03-14T15:59:37;0.10;;;0.10;;
51664;SDS011;37751;52.408;12.536;2023-03-14T16:02:05;0.10;;;0.10;;
51664;SDS011;37751;52.408;12.536;2023-03-14T16:04:40;0.10;;;0.10;;
51664;SDS011;37751;52.408;12.536;2023-03-14T16:07:07;0.00;;;0.00;;
51664;SDS011;37751;52.408;12.536;2023-03-14T16:09:38;0.10;;;0.10;;
51664;SDS011;37751;52.408;12.536;2023-03-14T16:12:06;0.10;;;0.10;;
51664;SDS011;37751;52.408;12.536;2023-03-14T16:14:35;0.00;;;0.00;;
51664;SDS011;37751;52.408;12.536;2023-03-14T16:17:03;0.00;;;0.00;;
51664;SDS011;37751;52.408;12.536;2023-03-14T16:19:38;0.10;;;0.10;;
51664;SDS011;37751;52.408;12.536;2023-03-14T16:22:05;0.10;;;0.10;;
51664;SDS011;37751;52.408;12.536;2023-03-14T16:24:33;0.10;;;0.10;;
51664;SDS011;37751;52.408;12.536;2023-03-14T16:27:00;1.73;;;1.60;;
51664;SDS011;37751;52.408;12.536;2023-03-14T16:29:29;0.00;;;0.00;;
51664;SDS011;37751;52.408;12.536;2023-03-14T16:31:57;0.10;;;0.10;;
51664;SDS011;37751;52.408;12.536;2023-03-14T16:34:25;0.07;;;0.07;;
51664;SDS011;37751;52.408;12.536;2023-03-14T16:36:52;0.20;;;0.20;;
51664;SDS011;37751;52.408;12.536;2023-03-14T16:39:33;0.50;;;0.50;;
51664;SDS011;37751;52.408;12.536;2023-03-14T16:42:17;0.00;;;0.00;;
51664;SDS011;37751;52.408;12.536;2023-03-14T16:44:44;0.10;;;0.10;;
51664;SDS011;37751;52.408;12.536;2023-03-14T16:47:12;0.10;;;0.10;;
51664;SDS011;37751;52.408;12.536;2023-03-14T16:49:40;0.10;;;0.10;;
51664;SDS011;37751;52.408;12.536;2023-03-14T16:52:07;0.00;;;0.00;;
51664;SDS011;37751;52.408;12.536;2023-03-14T16:54:35;0.17;;;0.17;;
51664;SDS011;37751;52.408;12.536;2023-03-14T16:57:03;0.07;;;0.07;;
51664;SDS011;37751;52.408;12.536;2023-03-14T16:59:31;0.10;;;0.10;;
51664;SDS011;37751;52.408;12.536;2023-03-14T17:03:31;0.10;;;0.10;;
51664;SDS011;37751;52.408;12.536;2023-03-14T17:06:30;0.10;;;0.10;;
51664;SDS011;37751;52.408;12.536;2023-03-14T17:09:07;0.83;;;0.83;;
51664;SDS011;37751;52.408;12.536;2023-03-14T17:11:59;0.10;;;0.10;;
51664;SDS011;37751;52.408;12.536;2023-03-14T17:14:48;0.00;;;0.00;;
51664;SDS011;37751;52.408;12.536;2023-03-14T17:17:35;0.10;;;0.10;;
51664;SDS011;37751;52.408;12.536;2023-03-14T17:20:25;0.10;;;0.10;;
51664;SDS011;37751;52.408;12.536;2023-03-14T17:23:16;0.07;;;0.07;;
51664;SDS011;37751;52.408;12.536;2023-03-14T17:26:42;0.17;;;0.17;;
51664;SDS011;37751;52.408;12.536;2023-03-14T17:29:31;0.00;;;0.00;;
51664;SDS011;37751;52.408;12.536;2023-03-14T17:32:21;0.00;;;0.00;;